sensor_id;sensor_type;location;lat;lon;timestamp;temperature;humidity
20162;DHT22;51382;53.180;15.414;2022-10-16T00:09:04;14.40;99.90
20162;DHT22;51382;53.180;15.414;2022-10-16T00:24:15;14.40;99.90
20162;DHT22;51382;53.180;15.414;2022-10-16T00:39:21;14.40;99.90
20162;DHT22;51382;53.180;15.414;2022-10-16T00:54:33;14.40;99.90
20162;DHT22;51382;53.180;15.414;2022-10-16T01:09:50;14.50;99.90
20162;DHT22;51382;53.180;15.414;2022-10-16T01:25:08;14.40;99.90
20162;DHT22;51382;53.180;15.414;2022-10-16T01:40:24;14.30;99.90
20162;DHT22;51382;53.180;15.414;2022-10-16T01:55:32;14.20;99.90
20162;DHT22;51382;53.180;15.414;2022-10-16T02:10:47;14.20;99.90
20162;DHT22;51382;53.180;15.414;2022-10-16T02:25:59;14.10;99.90
20162;DHT22;51382;53.180;15.414;2022-10-16T02:41:14;14.00;99.90
20162;DHT22;51382;53.180;15.414;2022-10-16T02:56:25;14.20;99.90
20162;DHT22;51382;53.180;15.414;2022-10-16T03:11:36;14.30;99.90
20162;DHT22;51382;53.180;15.414;2022-10-16T03:26:47;14.30;99.90
20162;DHT22;51382;53.180;15.414;2022-10-16T03:41:58;14.20;99.90
20162;DHT22;51382;53.180;15.414;2022-10-16T03:57:03;14.10;99.90
20162;DHT22;51382;53.180;15.414;2022-10-16T04:12:14;14.00;99.90
20162;DHT22;51382;53.180;15.414;2022-10-16T04:27:25;13.90;99.90
20162;DHT22;51382;53.180;15.414;2022-10-16T04:42:36;14.10;99.90
20162;DHT22;51382;53.180;15.414;2022-10-16T04:57:47;13.90;99.90
20162;DHT22;51382;53.180;15.414;2022-10-16T05:12:58;13.90;99.90
20162;DHT22;51382;53.180;15.414;2022-10-16T05:28:09;14.00;99.90
20162;DHT22;51382;53.180;15.414;2022-10-16T05:43:20;14.10;99.90
20162;DHT22;51382;53.180;15.414;2022-10-16T05:58:31;14.20;99.90
20162;DHT22;51382;53.180;15.414;2022-10-16T06:13:43;14.40;99.90
20162;DHT22;51382;53.180;15.414;2022-10-16T06:28:58;14.50;99.90
20162;DHT22;51382;53.180;15.414;2022-10-16T06:44:10;14.90;99.90
20162;DHT22;51382;53.180;15.414;2022-10-16T06:59:20;15.20;99.90
20162;DHT22;51382;53.180;15.414;2022-10-16T07:14:31;15.70;99.90
20162;DHT22;51382;53.180;15.414;2022-10-16T07:29:42;15.90;99.90
20162;DHT22;51382;53.180;15.414;2022-10-16T07:44:53;17.30;99.90
20162;DHT22;51382;53.180;15.414;2022-10-16T08:00:05;16.60;99.90
20162;DHT22;51382;53.180;15.414;2022-10-16T08:15:23;18.10;99.90
20162;DHT22;51382;53.180;15.414;2022-10-16T08:30:36;17.90;99.90
20162;DHT22;51382;53.180;15.414;2022-10-16T08:45:51;17.00;99.90
20162;DHT22;51382;53.180;15.414;2022-10-16T09:01:24;18.40;99.90
20162;DHT22;51382;53.180;15.414;2022-10-16T09:16:44;18.70;99.90
20162;DHT22;51382;53.180;15.414;2022-10-16T09:32:06;17.90;99.90
20162;DHT22;51382;53.180;15.414;2022-10-16T09:47:23;18.40;99.90
20162;DHT22;51382;53.180;15.414;2022-10-16T10:02:35;18.40;99.90
20162;DHT22;51382;53.180;15.414;2022-10-16T10:17:50;18.50;99.90
20162;DHT22;51382;53.180;15.414;2022-10-16T10:33:09;18.50;99.90
20162;DHT22;51382;53.180;15.414;2022-10-16T10:48:34;19.30;99.90
20162;DHT22;51382;53.180;15.414;2022-10-16T11:19:49;19.10;99.90
20162;DHT22;51382;53.180;15.414;2022-10-16T11:35:05;19.50;99.90
20162;DHT22;51382;53.180;15.414;2022-10-16T11:50:25;19.60;99.90
20162;DHT22;51382;53.180;15.414;2022-10-16T12:05:50;20.10;99.90
20162;DHT22;51382;53.180;15.414;2022-10-16T12:21:11;20.00;99.90
20162;DHT22;51382;53.180;15.414;2022-10-16T12:36:27;19.10;99.90
20162;DHT22;51382;53.180;15.414;2022-10-16T12:51:41;19.30;99.90
20162;DHT22;51382;53.180;15.414;2022-10-16T13:06:53;19.20;99.90
20162;DHT22;51382;53.180;15.414;2022-10-16T13:22:06;19.70;99.90
20162;DHT22;51382;53.180;15.414;2022-10-16T13:37:25;19.10;99.90
20162;DHT22;51382;53.180;15.414;2022-10-16T13:52:36;18.90;99.90
20162;DHT22;51382;53.180;15.414;2022-10-16T14:07:42;18.80;99.90
20162;DHT22;51382;53.180;15.414;2022-10-16T14:23:02;18.50;99.90
20162;DHT22;51382;53.180;15.414;2022-10-16T14:38:27;18.50;99.90
20162;DHT22;51382;53.180;15.414;2022-10-16T14:53:39;18.80;99.90
20162;DHT22;51382;53.180;15.414;2022-10-16T15:08:52;18.20;99.90
20162;DHT22;51382;53.180;15.414;2022-10-16T15:24:04;17.60;99.90
20162;DHT22;51382;53.180;15.414;2022-10-16T15:39:20;17.20;99.90
20162;DHT22;51382;53.180;15.414;2022-10-16T15:54:31;16.90;99.90
20162;DHT22;51382;53.180;15.414;2022-10-16T16:09:45;16.90;99.90
20162;DHT22;51382;53.180;15.414;2022-10-16T16:24:59;15.50;99.90
20162;DHT22;51382;53.180;15.414;2022-10-16T16:40:11;15.50;99.90
20162;DHT22;51382;53.180;15.414;2022-10-16T16:55:22;14.60;99.90
20162;DHT22;51382;53.180;15.414;2022-10-16T17:10:33;14.10;99.90
20162;DHT22;51382;53.180;15.414;2022-10-16T17:25:45;13.70;99.90
20162;DHT22;51382;53.180;15.414;2022-10-16T17:40:51;13.30;99.90
20162;DHT22;51382;53.180;15.414;2022-10-16T17:56:11;13.20;99.90
20162;DHT22;51382;53.180;15.414;2022-10-16T18:11:24;13.00;99.90
20162;DHT22;51382;53.180;15.414;2022-10-16T18:26:35;12.70;99.90
20162;DHT22;51382;53.180;15.414;2022-10-16T18:42:00;12.40;99.90
20162;DHT22;51382;53.180;15.414;2022-10-16T18:57:15;12.10;99.90
20162;DHT22;51382;53.180;15.414;2022-10-16T19:12:32;11.70;99.90
20162;DHT22;51382;53.180;15.414;2022-10-16T19:27:46;11.30;99.90
20162;DHT22;51382;53.180;15.414;2022-10-16T19:42:57;11.30;99.90
20162;DHT22;51382;53.180;15.414;2022-10-16T19:58:08;11.00;99.90
20162;DHT22;51382;53.180;15.414;2022-10-16T20:13:20;10.90;99.90
20162;DHT22;51382;53.180;15.414;2022-10-16T20:28:31;10.60;99.90
20162;DHT22;51382;53.180;15.414;2022-10-16T20:43:45;10.60;99.90
20162;DHT22;51382;53.180;15.414;2022-10-16T20:58:59;10.60;99.90
20162;DHT22;51382;53.180;15.414;2022-10-16T21:14:14;10.40;99.90
20162;DHT22;51382;53.180;15.414;2022-10-16T21:29:21;10.40;99.90
20162;DHT22;51382;53.180;15.414;2022-10-16T21:44:32;10.30;99.90
20162;DHT22;51382;53.180;15.414;2022-10-16T21:59:47;10.50;99.90
20162;DHT22;51382;53.180;15.414;2022-10-16T22:15:01;10.40;99.90
20162;DHT22;51382;53.180;15.414;2022-10-16T22:30:15;10.50;99.90
20162;DHT22;51382;53.180;15.414;2022-10-16T22:45:26;10.20;99.90
20162;DHT22;51382;53.180;15.414;2022-10-16T23:00:39;10.10;99.90
20162;DHT22;51382;53.180;15.414;2022-10-16T23:15:51;10.00;99.90
20162;DHT22;51382;53.180;15.414;2022-10-16T23:31:03;10.10;99.90
20162;DHT22;51382;53.180;15.414;2022-10-16T23:46:14;9.80;99.90
